sensor_id;sensor_type;location;lat;lon;timestamp;P1;durP1;ratioP1;P2;durP2;ratioP2
44139;SDS011;29803;51.048;4.686;2022-12-07T00:02:01;29.73;;;15.07;;
44139;SDS011;29803;51.048;4.686;2022-12-07T00:04:32;31.25;;;15.43;;
44139;SDS011;29803;51.048;4.686;2022-12-07T00:07:02;31.30;;;16.10;;
44139;SDS011;29803;51.048;4.686;2022-12-07T00:09:34;31.25;;;16.45;;
44139;SDS011;29803;51.048;4.686;2022-12-07T00:12:04;31.88;;;15.68;;
44139;SDS011;29803;51.048;4.686;2022-12-07T00:14:35;31.10;;;15.65;;
44139;SDS011;29803;51.048;4.686;2022-12-07T00:17:05;33.70;;;15.85;;
44139;SDS011;29803;51.048;4.686;2022-12-07T00:19:36;33.78;;;15.68;;
44139;SDS011;29803;51.048;4.686;2022-12-07T00:22:06;37.15;;;17.35;;
44139;SDS011;29803;51.048;4.686;2022-12-07T00:24:36;41.95;;;18.77;;
44139;SDS011;29803;51.048;4.686;2022-12-07T00:27:07;41.35;;;17.15;;
44139;SDS011;29803;51.048;4.686;2022-12-07T00:29:37;37.15;;;18.55;;
44139;SDS011;29803;51.048;4.686;2022-12-07T00:32:08;41.40;;;19.05;;
44139;SDS011;29803;51.048;4.686;2022-12-07T00:34:38;47.08;;;18.70;;
44139;SDS011;29803;51.048;4.686;2022-12-07T00:37:08;43.33;;;18.58;;
44139;SDS011;29803;51.048;4.686;2022-12-07T00:39:39;33.50;;;17.33;;
44139;SDS011;29803;51.048;4.686;2022-12-07T00:42:09;37.17;;;18.90;;
44139;SDS011;29803;51.048;4.686;2022-12-07T00:44:40;39.05;;;18.23;;
44139;SDS011;29803;51.048;4.686;2022-12-07T00:47:10;40.80;;;20.40;;
44139;SDS011;29803;51.048;4.686;2022-12-07T00:49:41;41.53;;;20.35;;
44139;SDS011;29803;51.048;4.686;2022-12-07T00:52:11;42.58;;;19.13;;
44139;SDS011;29803;51.048;4.686;2022-12-07T00:54:41;37.45;;;19.13;;
44139;SDS011;29803;51.048;4.686;2022-12-07T00:57:12;42.22;;;19.80;;
44139;SDS011;29803;51.048;4.686;2022-12-07T00:59:42;40.42;;;20.95;;
44139;SDS011;29803;51.048;4.686;2022-12-07T01:02:13;42.38;;;21.45;;
44139;SDS011;29803;51.048;4.686;2022-12-07T01:04:43;41.28;;;20.65;;
44139;SDS011;29803;51.048;4.686;2022-12-07T01:07:14;37.83;;;19.92;;
44139;SDS011;29803;51.048;4.686;2022-12-07T01:09:44;42.80;;;20.60;;
44139;SDS011;29803;51.048;4.686;2022-12-07T01:12:15;42.47;;;21.50;;
44139;SDS011;29803;51.048;4.686;2022-12-07T01:14:45;40.17;;;20.30;;
44139;SDS011;29803;51.048;4.686;2022-12-07T01:17:15;38.85;;;20.05;;
44139;SDS011;29803;51.048;4.686;2022-12-07T01:19:46;42.60;;;21.35;;
44139;SDS011;29803;51.048;4.686;2022-12-07T01:22:16;42.78;;;20.60;;
44139;SDS011;29803;51.048;4.686;2022-12-07T01:24:47;52.13;;;23.13;;
44139;SDS011;29803;51.048;4.686;2022-12-07T01:27:17;46.17;;;22.90;;
44139;SDS011;29803;51.048;4.686;2022-12-07T01:29:48;45.55;;;22.05;;
44139;SDS011;29803;51.048;4.686;2022-12-07T01:32:18;43.20;;;22.30;;
44139;SDS011;29803;51.048;4.686;2022-12-07T01:34:49;50.30;;;23.55;;
44139;SDS011;29803;51.048;4.686;2022-12-07T01:37:19;51.47;;;22.48;;
44139;SDS011;29803;51.048;4.686;2022-12-07T01:39:50;44.00;;;21.77;;
44139;SDS011;29803;51.048;4.686;2022-12-07T01:42:21;52.30;;;25.40;;
44139;SDS011;29803;51.048;4.686;2022-12-07T01:47:51;50.38;;;24.13;;
44139;SDS011;29803;51.048;4.686;2022-12-07T01:50:25;53.08;;;26.02;;
44139;SDS011;29803;51.048;4.686;2022-12-07T01:52:58;50.08;;;23.75;;
44139;SDS011;29803;51.048;4.686;2022-12-07T01:55:31;53.60;;;26.48;;
44139;SDS011;29803;51.048;4.686;2022-12-07T01:58:02;47.50;;;24.17;;
44139;SDS011;29803;51.048;4.686;2022-12-07T02:00:34;55.30;;;24.73;;
44139;SDS011;29803;51.048;4.686;2022-12-07T02:03:06;52.40;;;25.33;;
44139;SDS011;29803;51.048;4.686;2022-12-07T02:06:01;45.05;;;23.80;;
44139;SDS011;29803;51.048;4.686;2022-12-07T02:08:31;52.42;;;25.02;;
44139;SDS011;29803;51.048;4.686;2022-12-07T02:11:03;52.03;;;26.88;;
44139;SDS011;29803;51.048;4.686;2022-12-07T02:13:35;49.40;;;25.27;;
44139;SDS011;29803;51.048;4.686;2022-12-07T02:25:08;57.97;;;29.73;;
44139;SDS011;29803;51.048;4.686;2022-12-07T02:30:20;58.60;;;28.63;;
44139;SDS011;29803;51.048;4.686;2022-12-07T02:32:59;59.47;;;28.83;;
44139;SDS011;29803;51.048;4.686;2022-12-07T02:38:45;62.45;;;29.67;;
44139;SDS011;29803;51.048;4.686;2022-12-07T02:41:20;57.97;;;28.77;;
44139;SDS011;29803;51.048;4.686;2022-12-07T02:43:54;59.50;;;27.98;;
44139;SDS011;29803;51.048;4.686;2022-12-07T02:46:38;57.47;;;28.67;;
44139;SDS011;29803;51.048;4.686;2022-12-07T02:49:12;55.72;;;27.60;;
44139;SDS011;29803;51.048;4.686;2022-12-07T02:51:43;67.32;;;30.27;;
44139;SDS011;29803;51.048;4.686;2022-12-07T02:54:17;70.50;;;30.77;;
44139;SDS011;29803;51.048;4.686;2022-12-07T02:56:55;66.78;;;30.15;;
44139;SDS011;29803;51.048;4.686;2022-12-07T03:06:22;57.60;;;28.13;;
44139;SDS011;29803;51.048;4.686;2022-12-07T03:09:02;67.60;;;29.85;;
44139;SDS011;29803;51.048;4.686;2022-12-07T03:11:44;60.13;;;27.73;;
44139;SDS011;29803;51.048;4.686;2022-12-07T03:14:24;64.57;;;29.67;;
44139;SDS011;29803;51.048;4.686;2022-12-07T03:17:18;59.15;;;27.15;;
44139;SDS011;29803;51.048;4.686;2022-12-07T03:19:56;63.70;;;29.50;;
44139;SDS011;29803;51.048;4.686;2022-12-07T03:22:29;62.13;;;29.35;;
44139;SDS011;29803;51.048;4.686;2022-12-07T03:25:05;61.63;;;29.10;;
44139;SDS011;29803;51.048;4.686;2022-12-07T03:27:41;57.92;;;27.63;;
44139;SDS011;29803;51.048;4.686;2022-12-07T03:30:17;60.47;;;29.08;;
44139;SDS011;29803;51.048;4.686;2022-12-07T03:33:00;76.68;;;29.45;;
44139;SDS011;29803;51.048;4.686;2022-12-07T03:35:41;73.55;;;28.70;;
44139;SDS011;29803;51.048;4.686;2022-12-07T03:41:09;66.22;;;28.67;;
44139;SDS011;29803;51.048;4.686;2022-12-07T03:43:44;56.90;;;27.33;;
44139;SDS011;29803;51.048;4.686;2022-12-07T03:49:06;57.80;;;27.50;;
44139;SDS011;29803;51.048;4.686;2022-12-07T03:51:51;69.80;;;31.80;;
44139;SDS011;29803;51.048;4.686;2022-12-07T03:54:36;70.93;;;31.67;;
44139;SDS011;29803;51.048;4.686;2022-12-07T03:57:11;63.10;;;29.55;;
44139;SDS011;29803;51.048;4.686;2022-12-07T03:59:43;69.93;;;29.40;;
44139;SDS011;29803;51.048;4.686;2022-12-07T04:02:15;54.83;;;28.20;;
44139;SDS011;29803;51.048;4.686;2022-12-07T04:04:45;65.82;;;29.48;;
44139;SDS011;29803;51.048;4.686;2022-12-07T04:07:16;63.58;;;31.17;;
44139;SDS011;29803;51.048;4.686;2022-12-07T04:09:46;70.25;;;33.33;;
44139;SDS011;29803;51.048;4.686;2022-12-07T04:12:17;64.10;;;30.45;;
44139;SDS011;29803;51.048;4.686;2022-12-07T04:14:48;70.80;;;32.55;;
44139;SDS011;29803;51.048;4.686;2022-12-07T04:17:18;72.88;;;31.38;;
44139;SDS011;29803;51.048;4.686;2022-12-07T04:19:48;60.83;;;28.23;;
44139;SDS011;29803;51.048;4.686;2022-12-07T04:22:19;63.42;;;29.45;;
44139;SDS011;29803;51.048;4.686;2022-12-07T04:24:49;60.95;;;28.55;;
44139;SDS011;29803;51.048;4.686;2022-12-07T04:27:20;72.55;;;33.92;;
44139;SDS011;29803;51.048;4.686;2022-12-07T04:29:50;80.90;;;33.90;;
44139;SDS011;29803;51.048;4.686;2022-12-07T04:32:21;86.82;;;36.60;;
44139;SDS011;29803;51.048;4.686;2022-12-07T04:34:52;110.20;;;33.55;;
44139;SDS011;29803;51.048;4.686;2022-12-07T04:37:22;84.20;;;32.08;;
44139;SDS011;29803;51.048;4.686;2022-12-07T04:39:53;76.28;;;30.75;;
44139;SDS011;29803;51.048;4.686;2022-12-07T04:42:23;76.80;;;32.58;;
44139;SDS011;29803;51.048;4.686;2022-12-07T04:44:54;73.97;;;33.40;;
44139;SDS011;29803;51.048;4.686;2022-12-07T04:47:24;69.55;;;31.48;;
44139;SDS011;29803;51.048;4.686;2022-12-07T04:49:55;66.22;;;29.00;;
44139;SDS011;29803;51.048;4.686;2022-12-07T04:52:25;99.82;;;38.50;;
44139;SDS011;29803;51.048;4.686;2022-12-07T04:54:55;130.90;;;48.17;;
44139;SDS011;29803;51.048;4.686;2022-12-07T04:57:26;96.57;;;40.45;;
44139;SDS011;29803;51.048;4.686;2022-12-07T04:59:56;76.22;;;34.05;;
44139;SDS011;29803;51.048;4.686;2022-12-07T05:02:27;70.35;;;32.35;;
44139;SDS011;29803;51.048;4.686;2022-12-07T05:04:57;66.93;;;31.65;;
44139;SDS011;29803;51.048;4.686;2022-12-07T05:07:28;69.13;;;30.95;;
44139;SDS011;29803;51.048;4.686;2022-12-07T05:09:58;80.57;;;35.35;;
44139;SDS011;29803;51.048;4.686;2022-12-07T05:12:28;69.32;;;30.27;;
44139;SDS011;29803;51.048;4.686;2022-12-07T05:14:59;69.05;;;30.85;;
44139;SDS011;29803;51.048;4.686;2022-12-07T05:17:29;64.78;;;28.98;;
44139;SDS011;29803;51.048;4.686;2022-12-07T05:20:00;61.30;;;29.70;;
44139;SDS011;29803;51.048;4.686;2022-12-07T05:22:30;68.40;;;30.88;;
44139;SDS011;29803;51.048;4.686;2022-12-07T05:25:01;89.90;;;37.97;;
44139;SDS011;29803;51.048;4.686;2022-12-07T05:27:31;98.70;;;37.72;;
44139;SDS011;29803;51.048;4.686;2022-12-07T05:30:02;86.85;;;36.25;;
44139;SDS011;29803;51.048;4.686;2022-12-07T05:32:33;91.50;;;35.97;;
44139;SDS011;29803;51.048;4.686;2022-12-07T05:35:03;105.47;;;41.22;;
44139;SDS011;29803;51.048;4.686;2022-12-07T05:37:34;95.47;;;36.85;;
44139;SDS011;29803;51.048;4.686;2022-12-07T05:40:05;281.75;;;44.03;;
44139;SDS011;29803;51.048;4.686;2022-12-07T05:42:35;370.73;;;48.30;;
44139;SDS011;29803;51.048;4.686;2022-12-07T05:45:06;165.43;;;33.78;;
44139;SDS011;29803;51.048;4.686;2022-12-07T05:47:38;195.23;;;30.45;;
44139;SDS011;29803;51.048;4.686;2022-12-07T05:50:08;79.97;;;23.92;;
44139;SDS011;29803;51.048;4.686;2022-12-07T05:52:39;60.05;;;26.33;;
44139;SDS011;29803;51.048;4.686;2022-12-07T05:55:09;68.45;;;30.38;;
44139;SDS011;29803;51.048;4.686;2022-12-07T05:57:39;66.88;;;30.05;;
44139;SDS011;29803;51.048;4.686;2022-12-07T06:00:30;64.75;;;29.08;;
44139;SDS011;29803;51.048;4.686;2022-12-07T06:03:00;88.50;;;33.13;;
44139;SDS011;29803;51.048;4.686;2022-12-07T06:05:31;76.55;;;32.13;;
44139;SDS011;29803;51.048;4.686;2022-12-07T06:08:01;80.90;;;32.38;;
44139;SDS011;29803;51.048;4.686;2022-12-07T06:10:32;71.00;;;30.85;;
44139;SDS011;29803;51.048;4.686;2022-12-07T06:13:02;74.47;;;30.10;;
44139;SDS011;29803;51.048;4.686;2022-12-07T06:15:35;72.90;;;30.30;;
44139;SDS011;29803;51.048;4.686;2022-12-07T06:18:06;66.35;;;29.35;;
44139;SDS011;29803;51.048;4.686;2022-12-07T06:20:36;70.95;;;28.05;;
44139;SDS011;29803;51.048;4.686;2022-12-07T06:23:07;69.20;;;28.73;;
44139;SDS011;29803;51.048;4.686;2022-12-07T06:25:37;61.78;;;28.00;;
44139;SDS011;29803;51.048;4.686;2022-12-07T06:28:08;62.30;;;29.02;;
44139;SDS011;29803;51.048;4.686;2022-12-07T06:30:39;65.93;;;27.33;;
44139;SDS011;29803;51.048;4.686;2022-12-07T06:33:09;74.65;;;29.60;;
44139;SDS011;29803;51.048;4.686;2022-12-07T06:35:39;131.93;;;32.25;;
44139;SDS011;29803;51.048;4.686;2022-12-07T06:38:10;172.13;;;30.88;;
44139;SDS011;29803;51.048;4.686;2022-12-07T06:40:40;94.15;;;27.33;;
44139;SDS011;29803;51.048;4.686;2022-12-07T06:43:11;57.13;;;25.40;;
44139;SDS011;29803;51.048;4.686;2022-12-07T06:45:41;53.13;;;26.17;;
44139;SDS011;29803;51.048;4.686;2022-12-07T06:48:12;55.80;;;27.35;;
44139;SDS011;29803;51.048;4.686;2022-12-07T06:50:45;62.38;;;29.38;;
44139;SDS011;29803;51.048;4.686;2022-12-07T06:53:16;69.32;;;31.02;;
44139;SDS011;29803;51.048;4.686;2022-12-07T06:55:47;80.93;;;31.42;;
44139;SDS011;29803;51.048;4.686;2022-12-07T06:58:17;75.28;;;32.35;;
44139;SDS011;29803;51.048;4.686;2022-12-07T07:00:48;90.68;;;36.78;;
44139;SDS011;29803;51.048;4.686;2022-12-07T07:03:22;76.70;;;35.20;;
44139;SDS011;29803;51.048;4.686;2022-12-07T07:05:52;82.45;;;34.58;;
44139;SDS011;29803;51.048;4.686;2022-12-07T07:08:23;77.15;;;34.80;;
44139;SDS011;29803;51.048;4.686;2022-12-07T07:10:53;96.30;;;38.78;;
44139;SDS011;29803;51.048;4.686;2022-12-07T07:13:24;93.97;;;39.05;;
44139;SDS011;29803;51.048;4.686;2022-12-07T07:15:54;111.38;;;43.25;;
44139;SDS011;29803;51.048;4.686;2022-12-07T07:18:25;80.85;;;35.78;;
44139;SDS011;29803;51.048;4.686;2022-12-07T07:20:56;69.88;;;30.83;;
44139;SDS011;29803;51.048;4.686;2022-12-07T07:23:28;60.95;;;27.23;;
44139;SDS011;29803;51.048;4.686;2022-12-07T07:25:58;67.03;;;28.13;;
44139;SDS011;29803;51.048;4.686;2022-12-07T07:28:29;80.47;;;33.38;;
44139;SDS011;29803;51.048;4.686;2022-12-07T07:30:59;100.93;;;38.95;;
44139;SDS011;29803;51.048;4.686;2022-12-07T07:33:30;108.25;;;40.03;;
44139;SDS011;29803;51.048;4.686;2022-12-07T07:36:00;136.77;;;50.80;;
44139;SDS011;29803;51.048;4.686;2022-12-07T07:38:30;137.82;;;51.72;;
44139;SDS011;29803;51.048;4.686;2022-12-07T07:41:01;174.38;;;62.60;;
44139;SDS011;29803;51.048;4.686;2022-12-07T07:43:32;167.68;;;61.55;;
44139;SDS011;29803;51.048;4.686;2022-12-07T07:46:02;137.13;;;52.58;;
44139;SDS011;29803;51.048;4.686;2022-12-07T07:48:33;123.72;;;47.45;;
44139;SDS011;29803;51.048;4.686;2022-12-07T07:51:07;108.63;;;43.25;;
44139;SDS011;29803;51.048;4.686;2022-12-07T07:53:38;102.25;;;41.30;;
44139;SDS011;29803;51.048;4.686;2022-12-07T07:56:08;113.80;;;43.95;;
44139;SDS011;29803;51.048;4.686;2022-12-07T07:58:39;86.25;;;38.13;;
44139;SDS011;29803;51.048;4.686;2022-12-07T08:01:10;76.18;;;32.95;;
44139;SDS011;29803;51.048;4.686;2022-12-07T08:03:43;69.47;;;32.97;;
44139;SDS011;29803;51.048;4.686;2022-12-07T08:06:13;65.53;;;27.13;;
44139;SDS011;29803;51.048;4.686;2022-12-07T08:08:44;63.13;;;24.67;;
44139;SDS011;29803;51.048;4.686;2022-12-07T08:11:14;63.10;;;23.02;;
44139;SDS011;29803;51.048;4.686;2022-12-07T08:13:45;47.30;;;22.65;;
44139;SDS011;29803;51.048;4.686;2022-12-07T08:16:19;50.17;;;21.98;;
44139;SDS011;29803;51.048;4.686;2022-12-07T08:18:50;42.42;;;20.85;;
44139;SDS011;29803;51.048;4.686;2022-12-07T08:21:20;48.97;;;21.23;;
44139;SDS011;29803;51.048;4.686;2022-12-07T08:23:51;45.35;;;20.80;;
44139;SDS011;29803;51.048;4.686;2022-12-07T08:26:21;50.92;;;22.77;;
44139;SDS011;29803;51.048;4.686;2022-12-07T08:28:52;55.47;;;25.50;;
44139;SDS011;29803;51.048;4.686;2022-12-07T08:31:23;141.07;;;60.55;;
44139;SDS011;29803;51.048;4.686;2022-12-07T08:33:54;372.33;;;144.35;;
44139;SDS011;29803;51.048;4.686;2022-12-07T08:36:25;231.73;;;96.80;;
44139;SDS011;29803;51.048;4.686;2022-12-07T08:38:56;190.32;;;76.65;;
44139;SDS011;29803;51.048;4.686;2022-12-07T08:41:27;150.05;;;63.20;;
44139;SDS011;29803;51.048;4.686;2022-12-07T08:43:57;108.40;;;48.42;;
44139;SDS011;29803;51.048;4.686;2022-12-07T08:46:32;125.05;;;55.60;;
44139;SDS011;29803;51.048;4.686;2022-12-07T08:51:46;51.95;;;22.90;;
44139;SDS011;29803;51.048;4.686;2022-12-07T08:54:17;38.00;;;16.77;;
44139;SDS011;29803;51.048;4.686;2022-12-07T08:56:49;26.88;;;13.85;;
44139;SDS011;29803;51.048;4.686;2022-12-07T08:59:21;26.33;;;11.75;;
44139;SDS011;29803;51.048;4.686;2022-12-07T09:01:53;25.13;;;11.90;;
44139;SDS011;29803;51.048;4.686;2022-12-07T09:04:23;25.52;;;11.05;;
44139;SDS011;29803;51.048;4.686;2022-12-07T09:06:54;23.25;;;9.98;;
44139;SDS011;29803;51.048;4.686;2022-12-07T09:09:25;19.77;;;9.20;;
44139;SDS011;29803;51.048;4.686;2022-12-07T09:11:55;25.48;;;10.00;;
44139;SDS011;29803;51.048;4.686;2022-12-07T09:14:26;18.55;;;9.45;;
44139;SDS011;29803;51.048;4.686;2022-12-07T09:17:04;21.38;;;8.98;;
44139;SDS011;29803;51.048;4.686;2022-12-07T09:19:36;17.17;;;7.65;;
44139;SDS011;29803;51.048;4.686;2022-12-07T09:22:07;18.63;;;8.05;;
44139;SDS011;29803;51.048;4.686;2022-12-07T09:24:37;15.77;;;6.90;;
44139;SDS011;29803;51.048;4.686;2022-12-07T09:27:08;16.10;;;7.53;;
44139;SDS011;29803;51.048;4.686;2022-12-07T09:29:38;15.68;;;7.10;;
44139;SDS011;29803;51.048;4.686;2022-12-07T09:32:09;17.77;;;7.18;;
44139;SDS011;29803;51.048;4.686;2022-12-07T09:34:39;14.60;;;7.30;;
44139;SDS011;29803;51.048;4.686;2022-12-07T09:37:10;13.80;;;7.15;;
44139;SDS011;29803;51.048;4.686;2022-12-07T09:39:40;17.80;;;8.57;;
44139;SDS011;29803;51.048;4.686;2022-12-07T09:42:13;20.73;;;8.43;;
44139;SDS011;29803;51.048;4.686;2022-12-07T09:45:07;19.70;;;9.00;;
44139;SDS011;29803;51.048;4.686;2022-12-07T09:47:44;19.13;;;8.52;;
44139;SDS011;29803;51.048;4.686;2022-12-07T09:50:17;17.83;;;7.75;;
44139;SDS011;29803;51.048;4.686;2022-12-07T09:52:51;15.65;;;7.72;;
44139;SDS011;29803;51.048;4.686;2022-12-07T09:55:23;19.17;;;8.32;;
44139;SDS011;29803;51.048;4.686;2022-12-07T09:57:57;14.95;;;7.28;;
44139;SDS011;29803;51.048;4.686;2022-12-07T10:00:29;16.45;;;6.57;;
44139;SDS011;29803;51.048;4.686;2022-12-07T10:03:00;13.85;;;6.28;;
44139;SDS011;29803;51.048;4.686;2022-12-07T10:05:36;19.77;;;6.35;;
44139;SDS011;29803;51.048;4.686;2022-12-07T10:08:13;18.75;;;5.95;;
44139;SDS011;29803;51.048;4.686;2022-12-07T10:10:50;13.95;;;6.25;;
44139;SDS011;29803;51.048;4.686;2022-12-07T10:13:39;17.33;;;6.38;;
44139;SDS011;29803;51.048;4.686;2022-12-07T10:18:56;14.10;;;6.28;;
44139;SDS011;29803;51.048;4.686;2022-12-07T10:21:27;13.15;;;6.10;;
44139;SDS011;29803;51.048;4.686;2022-12-07T10:29:14;15.02;;;7.22;;
44139;SDS011;29803;51.048;4.686;2022-12-07T10:32:04;17.25;;;6.78;;
44139;SDS011;29803;51.048;4.686;2022-12-07T10:34:38;18.10;;;7.25;;
44139;SDS011;29803;51.048;4.686;2022-12-07T10:42:23;12.82;;;5.47;;
44139;SDS011;29803;51.048;4.686;2022-12-07T10:51:18;17.15;;;4.80;;
44139;SDS011;29803;51.048;4.686;2022-12-07T10:54:25;11.45;;;4.82;;
44139;SDS011;29803;51.048;4.686;2022-12-07T10:59:52;7.85;;;4.22;;
44139;SDS011;29803;51.048;4.686;2022-12-07T11:08:09;11.25;;;4.30;;
44139;SDS011;29803;51.048;4.686;2022-12-07T11:11:00;8.93;;;3.65;;
44139;SDS011;29803;51.048;4.686;2022-12-07T11:30:50;7.82;;;3.20;;
44139;SDS011;29803;51.048;4.686;2022-12-07T11:33:45;8.82;;;3.25;;
44139;SDS011;29803;51.048;4.686;2022-12-07T11:36:44;9.13;;;3.40;;
44139;SDS011;29803;51.048;4.686;2022-12-07T11:41:50;10.05;;;3.60;;
44139;SDS011;29803;51.048;4.686;2022-12-07T11:44:31;11.85;;;4.18;;
44139;SDS011;29803;51.048;4.686;2022-12-07T11:47:23;14.48;;;4.03;;
44139;SDS011;29803;51.048;4.686;2022-12-07T11:52:28;12.27;;;3.92;;
44139;SDS011;29803;51.048;4.686;2022-12-07T11:55:21;15.25;;;4.95;;
44139;SDS011;29803;51.048;4.686;2022-12-07T12:03:38;19.92;;;8.02;;
44139;SDS011;29803;51.048;4.686;2022-12-07T12:06:15;21.90;;;8.20;;
44139;SDS011;29803;51.048;4.686;2022-12-07T12:09:06;23.08;;;7.70;;
44139;SDS011;29803;51.048;4.686;2022-12-07T12:15:02;20.58;;;7.40;;
44139;SDS011;29803;51.048;4.686;2022-12-07T12:26:18;13.95;;;6.95;;
44139;SDS011;29803;51.048;4.686;2022-12-07T12:28:55;15.32;;;5.90;;
44139;SDS011;29803;51.048;4.686;2022-12-07T12:31:34;11.77;;;6.55;;
44139;SDS011;29803;51.048;4.686;2022-12-07T12:37:00;16.20;;;6.00;;
44139;SDS011;29803;51.048;4.686;2022-12-07T12:39:31;11.45;;;7.20;;
44139;SDS011;29803;51.048;4.686;2022-12-07T12:42:01;14.45;;;5.95;;
44139;SDS011;29803;51.048;4.686;2022-12-07T12:47:04;12.30;;;6.00;;
44139;SDS011;29803;51.048;4.686;2022-12-07T12:50:11;15.35;;;6.38;;
44139;SDS011;29803;51.048;4.686;2022-12-07T12:53:00;9.55;;;5.85;;
44139;SDS011;29803;51.048;4.686;2022-12-07T12:58:42;14.23;;;6.63;;
44139;SDS011;29803;51.048;4.686;2022-12-07T13:01:31;13.38;;;6.20;;
44139;SDS011;29803;51.048;4.686;2022-12-07T13:04:21;13.98;;;5.03;;
44139;SDS011;29803;51.048;4.686;2022-12-07T13:06:55;16.27;;;5.63;;
44139;SDS011;29803;51.048;4.686;2022-12-07T13:09:27;13.32;;;5.50;;
44139;SDS011;29803;51.048;4.686;2022-12-07T13:17:12;11.50;;;5.63;;
44139;SDS011;29803;51.048;4.686;2022-12-07T13:20:03;9.95;;;5.00;;
44139;SDS011;29803;51.048;4.686;2022-12-07T13:22:39;7.63;;;4.50;;
44139;SDS011;29803;51.048;4.686;2022-12-07T13:25:34;10.80;;;4.50;;
44139;SDS011;29803;51.048;4.686;2022-12-07T13:28:16;9.95;;;6.00;;
44139;SDS011;29803;51.048;4.686;2022-12-07T13:37:11;13.35;;;5.57;;
44139;SDS011;29803;51.048;4.686;2022-12-07T13:39:52;12.07;;;6.10;;
44139;SDS011;29803;51.048;4.686;2022-12-07T13:42:29;12.93;;;6.28;;
44139;SDS011;29803;51.048;4.686;2022-12-07T13:45:20;18.50;;;7.65;;
44139;SDS011;29803;51.048;4.686;2022-12-07T13:48:15;17.15;;;7.00;;
44139;SDS011;29803;51.048;4.686;2022-12-07T13:51:03;13.32;;;6.22;;
44139;SDS011;29803;51.048;4.686;2022-12-07T13:53:34;8.35;;;5.53;;
44139;SDS011;29803;51.048;4.686;2022-12-07T13:56:17;13.73;;;6.53;;
44139;SDS011;29803;51.048;4.686;2022-12-07T13:58:48;15.60;;;7.90;;
44139;SDS011;29803;51.048;4.686;2022-12-07T14:01:18;17.98;;;9.82;;
44139;SDS011;29803;51.048;4.686;2022-12-07T14:03:49;18.92;;;8.50;;
44139;SDS011;29803;51.048;4.686;2022-12-07T14:06:22;15.75;;;7.13;;
44139;SDS011;29803;51.048;4.686;2022-12-07T14:09:07;12.02;;;5.18;;
44139;SDS011;29803;51.048;4.686;2022-12-07T14:11:47;10.02;;;5.43;;
44139;SDS011;29803;51.048;4.686;2022-12-07T14:14:20;10.20;;;5.43;;
44139;SDS011;29803;51.048;4.686;2022-12-07T14:16:59;11.80;;;5.80;;
44139;SDS011;29803;51.048;4.686;2022-12-07T14:19:50;13.13;;;6.03;;
44139;SDS011;29803;51.048;4.686;2022-12-07T14:27:34;20.38;;;8.65;;
44139;SDS011;29803;51.048;4.686;2022-12-07T14:30:04;14.05;;;7.60;;
44139;SDS011;29803;51.048;4.686;2022-12-07T14:32:36;19.85;;;8.13;;
44139;SDS011;29803;51.048;4.686;2022-12-07T14:35:09;21.63;;;8.80;;
44139;SDS011;29803;51.048;4.686;2022-12-07T14:37:43;15.65;;;7.65;;
44139;SDS011;29803;51.048;4.686;2022-12-07T14:40:16;18.02;;;6.38;;
44139;SDS011;29803;51.048;4.686;2022-12-07T14:42:50;16.25;;;6.70;;
44139;SDS011;29803;51.048;4.686;2022-12-07T14:45:23;9.38;;;5.32;;
44139;SDS011;29803;51.048;4.686;2022-12-07T14:47:54;9.15;;;5.22;;
44139;SDS011;29803;51.048;4.686;2022-12-07T14:50:24;8.55;;;4.00;;
44139;SDS011;29803;51.048;4.686;2022-12-07T14:52:55;6.25;;;3.67;;
44139;SDS011;29803;51.048;4.686;2022-12-07T14:55:30;5.82;;;3.30;;
44139;SDS011;29803;51.048;4.686;2022-12-07T14:58:01;8.05;;;3.03;;
44139;SDS011;29803;51.048;4.686;2022-12-07T15:00:32;11.20;;;3.92;;
44139;SDS011;29803;51.048;4.686;2022-12-07T15:03:04;7.88;;;3.10;;
44139;SDS011;29803;51.048;4.686;2022-12-07T15:05:35;7.40;;;3.15;;
44139;SDS011;29803;51.048;4.686;2022-12-07T15:08:08;10.73;;;3.90;;
44139;SDS011;29803;51.048;4.686;2022-12-07T15:10:40;6.25;;;3.13;;
44139;SDS011;29803;51.048;4.686;2022-12-07T15:13:11;5.75;;;3.38;;
44139;SDS011;29803;51.048;4.686;2022-12-07T15:16:00;7.43;;;3.97;;
44139;SDS011;29803;51.048;4.686;2022-12-07T15:18:31;11.85;;;4.32;;
44139;SDS011;29803;51.048;4.686;2022-12-07T15:21:01;8.05;;;3.55;;
44139;SDS011;29803;51.048;4.686;2022-12-07T15:23:32;10.70;;;3.67;;
44139;SDS011;29803;51.048;4.686;2022-12-07T15:26:02;9.35;;;3.60;;
44139;SDS011;29803;51.048;4.686;2022-12-07T15:28:33;7.32;;;2.90;;
44139;SDS011;29803;51.048;4.686;2022-12-07T15:31:04;8.65;;;3.65;;
44139;SDS011;29803;51.048;4.686;2022-12-07T15:33:43;8.43;;;4.57;;
44139;SDS011;29803;51.048;4.686;2022-12-07T15:36:23;9.93;;;4.05;;
44139;SDS011;29803;51.048;4.686;2022-12-07T15:38:56;10.05;;;4.50;;
44139;SDS011;29803;51.048;4.686;2022-12-07T15:41:26;12.43;;;4.90;;
44139;SDS011;29803;51.048;4.686;2022-12-07T15:43:57;8.98;;;4.13;;
44139;SDS011;29803;51.048;4.686;2022-12-07T15:46:46;12.02;;;5.00;;
44139;SDS011;29803;51.048;4.686;2022-12-07T15:49:17;12.85;;;4.13;;
44139;SDS011;29803;51.048;4.686;2022-12-07T15:51:49;10.32;;;4.30;;
44139;SDS011;29803;51.048;4.686;2022-12-07T15:54:26;11.93;;;4.70;;
44139;SDS011;29803;51.048;4.686;2022-12-07T15:56:58;9.27;;;4.07;;
44139;SDS011;29803;51.048;4.686;2022-12-07T15:59:29;12.98;;;5.60;;
44139;SDS011;29803;51.048;4.686;2022-12-07T16:02:00;15.30;;;4.72;;
44139;SDS011;29803;51.048;4.686;2022-12-07T16:04:30;9.05;;;5.15;;
44139;SDS011;29803;51.048;4.686;2022-12-07T16:07:01;17.33;;;6.00;;
44139;SDS011;29803;51.048;4.686;2022-12-07T16:09:32;16.25;;;6.68;;
44139;SDS011;29803;51.048;4.686;2022-12-07T16:12:02;12.95;;;6.60;;
44139;SDS011;29803;51.048;4.686;2022-12-07T16:14:33;14.18;;;6.55;;
44139;SDS011;29803;51.048;4.686;2022-12-07T16:17:04;19.40;;;7.32;;
44139;SDS011;29803;51.048;4.686;2022-12-07T16:19:35;18.13;;;6.55;;
44139;SDS011;29803;51.048;4.686;2022-12-07T16:22:07;21.73;;;7.40;;
44139;SDS011;29803;51.048;4.686;2022-12-07T16:24:37;13.52;;;6.70;;
44139;SDS011;29803;51.048;4.686;2022-12-07T16:27:08;15.88;;;6.90;;
44139;SDS011;29803;51.048;4.686;2022-12-07T16:29:38;15.38;;;6.60;;
44139;SDS011;29803;51.048;4.686;2022-12-07T16:32:09;14.77;;;6.85;;
44139;SDS011;29803;51.048;4.686;2022-12-07T16:34:40;16.10;;;8.48;;
44139;SDS011;29803;51.048;4.686;2022-12-07T16:37:10;49.92;;;26.08;;
44139;SDS011;29803;51.048;4.686;2022-12-07T16:39:41;463.73;;;189.23;;
44139;SDS011;29803;51.048;4.686;2022-12-07T16:42:11;216.60;;;93.10;;
44139;SDS011;29803;51.048;4.686;2022-12-07T16:44:42;39.97;;;21.30;;
44139;SDS011;29803;51.048;4.686;2022-12-07T16:47:13;18.90;;;7.05;;
44139;SDS011;29803;51.048;4.686;2022-12-07T16:49:44;30.17;;;14.38;;
44139;SDS011;29803;51.048;4.686;2022-12-07T16:52:14;14.90;;;8.35;;
44139;SDS011;29803;51.048;4.686;2022-12-07T16:54:45;15.52;;;7.55;;
44139;SDS011;29803;51.048;4.686;2022-12-07T16:57:16;18.98;;;7.35;;
44139;SDS011;29803;51.048;4.686;2022-12-07T16:59:47;15.32;;;7.90;;
44139;SDS011;29803;51.048;4.686;2022-12-07T17:02:18;15.77;;;7.22;;
44139;SDS011;29803;51.048;4.686;2022-12-07T17:04:50;19.02;;;8.60;;
44139;SDS011;29803;51.048;4.686;2022-12-07T17:07:21;15.75;;;5.70;;
44139;SDS011;29803;51.048;4.686;2022-12-07T17:09:52;14.32;;;5.43;;